createdAt,value
2023-08-23T00:01:25.373Z,88.00
2023-08-23T00:03:55.118Z,88.20
2023-08-23T00:06:22.008Z,88.40
2023-08-23T00:08:48.749Z,88.80
2023-08-23T00:11:16.161Z,89.90
2023-08-23T00:13:42.965Z,89.30
2023-08-23T00:16:09.748Z,89.40
2023-08-23T00:18:36.496Z,88.90
2023-08-23T00:21:03.663Z,89.20
2023-08-23T00:23:30.638Z,89.70
2023-08-23T00:25:57.412Z,89.80
2023-08-23T00:28:24.217Z,89.70
2023-08-23T00:30:52.034Z,89.90
2023-08-23T00:33:19.008Z,89.70
2023-08-23T00:35:46.184Z,89.50
2023-08-23T00:38:13.721Z,89.50
2023-08-23T00:40:40.463Z,89.70
2023-08-23T00:43:08.976Z,89.90
2023-08-23T00:45:39.454Z,89.80
2023-08-23T00:48:07.578Z,90.00
2023-08-23T00:50:35.704Z,90.10
2023-08-23T00:53:03.479Z,90.20
2023-08-23T00:55:30.877Z,90.20
2023-08-23T00:57:58.599Z,90.50
2023-08-23T01:00:27.587Z,90.40
2023-08-23T01:02:54.883Z,90.60
2023-08-23T01:05:33.490Z,90.50
2023-08-23T01:08:16.587Z,90.60
2023-08-23T01:11:02.942Z,90.60
2023-08-23T01:13:42.635Z,90.70
2023-08-23T01:16:13.724Z,90.90
2023-08-23T01:18:41.216Z,91.10
2023-08-23T01:21:10.314Z,91.00
2023-08-23T01:23:38.272Z,90.80
2023-08-23T01:26:05.039Z,90.90
2023-08-23T01:28:31.831Z,90.80
2023-08-23T01:31:01.096Z,90.70
2023-08-23T01:33:38.215Z,90.80
2023-08-23T01:36:18.148Z,91.40
2023-08-23T01:38:47.449Z,91.00
2023-08-23T01:41:15.300Z,91.60
2023-08-23T01:43:42.109Z,91.30
2023-08-23T01:46:08.968Z,91.40
2023-08-23T01:48:35.737Z,91.50
2023-08-23T01:51:02.588Z,91.40
2023-08-23T01:53:29.326Z,91.60
2023-08-23T01:55:56.128Z,91.70
2023-08-23T01:58:23.090Z,91.60
2023-08-23T02:00:49.907Z,91.70
2023-08-23T02:03:16.758Z,91.50
2023-08-23T02:05:43.635Z,91.50
2023-08-23T02:08:10.360Z,91.60
2023-08-23T02:10:37.351Z,91.40
2023-08-23T02:13:07.914Z,91.40
2023-08-23T02:15:34.803Z,91.70
2023-08-23T02:18:01.802Z,91.60
2023-08-23T02:20:28.601Z,91.70
2023-08-23T02:22:55.344Z,91.50
2023-08-23T02:25:22.203Z,91.60
2023-08-23T02:27:49.363Z,91.70
2023-08-23T02:30:16.643Z,91.50
2023-08-23T02:32:43.492Z,91.60
2023-08-23T02:35:10.383Z,91.70
2023-08-23T02:37:37.143Z,91.90
2023-08-23T02:40:04.798Z,91.90
2023-08-23T02:42:31.595Z,92.10
2023-08-23T02:44:58.397Z,92.40
2023-08-23T02:47:25.146Z,92.30
2023-08-23T02:49:52.159Z,92.50
2023-08-23T02:52:19.548Z,92.40
2023-08-23T02:54:46.428Z,92.40
2023-08-23T02:57:13.155Z,92.50
2023-08-23T02:59:39.865Z,92.70
2023-08-23T03:02:06.712Z,92.50
2023-08-23T03:04:33.482Z,92.30
2023-08-23T03:07:00.329Z,92.20
2023-08-23T03:09:27.163Z,92.40
2023-08-23T03:11:53.995Z,92.50
2023-08-23T03:14:20.762Z,92.60
2023-08-23T03:16:47.577Z,92.60
2023-08-23T03:19:14.439Z,92.40
2023-08-23T03:21:41.239Z,92.80
2023-08-23T03:24:08.054Z,92.60
2023-08-23T03:26:34.878Z,92.70
2023-08-23T03:29:01.728Z,92.70
2023-08-23T03:31:29.181Z,92.60
2023-08-23T03:33:56.133Z,92.80
2023-08-23T03:36:23.499Z,93.00
2023-08-23T03:38:50.292Z,93.00
2023-08-23T03:41:17.050Z,93.20
2023-08-23T03:43:43.810Z,93.20
2023-08-23T03:46:10.704Z,93.20
2023-08-23T03:48:37.487Z,93.30
2023-08-23T03:51:04.306Z,93.50
2023-08-23T03:53:31.175Z,93.60
2023-08-23T03:55:59.302Z,93.50
2023-08-23T03:58:26.269Z,93.60
2023-08-23T04:00:53.770Z,93.70
2023-08-23T04:03:21.030Z,93.80
2023-08-23T04:05:48.013Z,93.80
2023-08-23T04:08:14.803Z,93.80
2023-08-23T04:10:47.933Z,93.90
2023-08-23T04:13:14.813Z,93.90
2023-08-23T04:15:45.668Z,94.00
2023-08-23T04:18:12.741Z,94.10
2023-08-23T04:20:39.901Z,94.40
2023-08-23T04:23:07.041Z,94.40
2023-08-23T04:25:34.155Z,94.20
2023-08-23T04:28:01.068Z,93.90
2023-08-23T04:30:28.136Z,94.10
2023-08-23T04:32:54.976Z,94.10
2023-08-23T04:35:21.903Z,94.20
2023-08-23T04:37:48.740Z,94.30
2023-08-23T04:40:15.822Z,94.40
2023-08-23T04:42:42.774Z,94.60
2023-08-23T04:45:10.036Z,94.50
2023-08-23T04:47:36.873Z,94.50
2023-08-23T04:50:03.882Z,94.50
2023-08-23T04:52:31.082Z,94.70
2023-08-23T04:54:57.980Z,94.50
2023-08-23T04:57:24.776Z,94.50
2023-08-23T04:59:52.066Z,94.80
2023-08-23T05:02:18.858Z,94.90
2023-08-23T05:04:45.697Z,94.70
2023-08-23T05:07:12.524Z,95.00
2023-08-23T05:09:39.341Z,94.60
2023-08-23T05:12:06.494Z,94.70
2023-08-23T05:14:33.363Z,94.80
2023-08-23T05:17:00.153Z,94.80
2023-08-23T05:19:26.876Z,94.80
2023-08-23T05:21:53.764Z,94.90
2023-08-23T05:24:20.535Z,95.00
2023-08-23T05:26:47.232Z,94.90
2023-08-23T05:29:14.043Z,95.00
2023-08-23T05:31:40.850Z,95.00
2023-08-23T05:34:07.588Z,94.80
2023-08-23T05:36:34.578Z,94.80
2023-08-23T05:39:03.900Z,94.80
2023-08-23T05:41:30.664Z,94.70
2023-08-23T05:43:57.399Z,94.80
2023-08-23T05:46:24.221Z,94.70
2023-08-23T05:48:50.936Z,94.70
2023-08-23T05:51:18.103Z,94.70
2023-08-23T05:53:44.871Z,94.60
2023-08-23T05:56:11.580Z,94.60
2023-08-23T05:58:38.416Z,94.50
2023-08-23T06:01:05.326Z,94.40
2023-08-23T06:03:32.234Z,94.30
2023-08-23T06:05:59.042Z,94.40
2023-08-23T06:08:25.798Z,94.30
2023-08-23T06:10:52.692Z,94.30
2023-08-23T06:13:19.900Z,94.30
2023-08-23T06:15:46.825Z,94.30
2023-08-23T06:18:13.594Z,94.30
2023-08-23T06:20:41.338Z,93.70
2023-08-23T06:23:08.157Z,94.30
2023-08-23T06:25:35.007Z,94.30
2023-08-23T06:28:02.030Z,94.40
2023-08-23T06:30:28.887Z,94.40
2023-08-23T06:32:57.061Z,94.40
2023-08-23T06:35:25.869Z,94.30
2023-08-23T06:37:52.777Z,94.20
2023-08-23T06:40:19.713Z,94.30
2023-08-23T06:42:46.543Z,94.50
2023-08-23T06:45:13.545Z,94.40
2023-08-23T06:47:40.649Z,94.40
2023-08-23T06:50:11.298Z,94.50
2023-08-23T06:52:39.757Z,94.50
2023-08-23T06:55:07.257Z,94.50
2023-08-23T06:57:34.105Z,94.60
2023-08-23T07:00:01.374Z,94.50
2023-08-23T07:02:28.322Z,94.50
2023-08-23T07:04:55.173Z,94.50
2023-08-23T07:07:22.664Z,94.40
2023-08-23T07:09:50.355Z,94.50
2023-08-23T07:12:17.376Z,94.60
2023-08-23T07:14:44.508Z,94.60
2023-08-23T07:17:11.348Z,94.50
2023-08-23T07:19:38.123Z,94.50
2023-08-23T07:22:05.711Z,94.40
2023-08-23T07:24:32.943Z,94.50
2023-08-23T07:26:59.763Z,94.40
2023-08-23T07:29:26.667Z,94.40
2023-08-23T07:31:53.629Z,94.40
2023-08-23T07:34:20.578Z,94.30
2023-08-23T07:36:47.431Z,94.20
2023-08-23T07:39:14.328Z,94.20
2023-08-23T07:41:41.050Z,94.10
2023-08-23T07:44:08.040Z,94.20
2023-08-23T07:46:34.929Z,94.30
2023-08-23T07:49:01.680Z,94.20
2023-08-23T07:51:28.460Z,94.20
2023-08-23T07:53:55.286Z,94.20
2023-08-23T07:56:21.984Z,94.30
2023-08-23T07:58:48.709Z,94.20
2023-08-23T08:01:15.637Z,94.00
2023-08-23T08:03:42.508Z,93.90
2023-08-23T08:06:09.264Z,93.90
2023-08-23T08:08:40.335Z,93.80
2023-08-23T08:11:07.402Z,93.90
2023-08-23T08:13:34.317Z,93.80
2023-08-23T08:16:10.808Z,93.70
2023-08-23T08:18:38.076Z,93.70
2023-08-23T08:21:05.530Z,93.70
2023-08-23T08:23:33.087Z,93.70
2023-08-23T08:25:59.866Z,93.50
2023-08-23T08:28:26.903Z,93.80
2023-08-23T08:30:53.704Z,93.60
2023-08-23T08:33:21.167Z,93.40
2023-08-23T08:35:48.057Z,93.50
2023-08-23T08:38:14.907Z,93.10
2023-08-23T08:40:41.760Z,92.70
2023-08-23T08:43:10.886Z,92.80
2023-08-23T08:45:38.993Z,93.00
2023-08-23T08:48:07.140Z,92.80
2023-08-23T08:50:34.470Z,92.50
2023-08-23T08:53:02.034Z,92.30
2023-08-23T08:55:32.269Z,92.20
2023-08-23T08:58:00.415Z,92.20
2023-08-23T09:00:31.602Z,91.90
2023-08-23T09:02:59.315Z,91.90
2023-08-23T09:05:26.997Z,91.90
2023-08-23T09:07:55.708Z,91.90
2023-08-23T09:10:23.515Z,92.00
2023-08-23T09:12:50.396Z,91.80
2023-08-23T09:15:25.170Z,91.50
2023-08-23T09:17:56.090Z,91.70
2023-08-23T09:20:23.945Z,91.60
2023-08-23T09:22:52.571Z,91.50
2023-08-23T09:25:19.743Z,91.30
2023-08-23T09:27:46.616Z,91.30
2023-08-23T09:30:14.172Z,91.00
2023-08-23T09:32:42.943Z,90.90
2023-08-23T09:35:19.531Z,90.90
2023-08-23T09:37:48.952Z,91.20
2023-08-23T09:40:24.181Z,92.10
2023-08-23T09:42:52.349Z,91.20
2023-08-23T09:45:22.298Z,91.30
2023-08-23T09:48:01.073Z,91.00
2023-08-23T09:50:28.374Z,91.30
2023-08-23T09:53:01.418Z,91.20
2023-08-23T09:55:29.805Z,91.20
2023-08-23T09:57:57.723Z,90.40
2023-08-23T10:00:24.803Z,89.80
2023-08-23T10:02:54.479Z,89.70
2023-08-23T10:05:24.473Z,90.10
2023-08-23T10:07:57.212Z,90.00
2023-08-23T10:10:24.464Z,90.60
2023-08-23T10:12:55.757Z,90.00
2023-08-23T10:15:32.589Z,89.30
2023-08-23T10:18:02.123Z,90.40
2023-08-23T10:20:29.236Z,90.20
2023-08-23T10:22:59.349Z,90.30
2023-08-23T10:25:26.259Z,89.10
2023-08-23T10:27:55.067Z,89.30
2023-08-23T10:30:27.078Z,88.80
2023-08-23T10:32:55.285Z,88.90
2023-08-23T10:35:36.110Z,88.60
2023-08-23T10:38:05.407Z,88.90
2023-08-23T10:40:33.982Z,87.70
2023-08-23T10:43:05.278Z,87.00
2023-08-23T10:46:15.519Z,86.70
2023-08-23T10:48:42.437Z,85.50
2023-08-23T10:51:10.302Z,84.80
2023-08-23T10:53:37.072Z,84.50
2023-08-23T10:56:04.186Z,84.70
2023-08-23T10:58:33.445Z,84.60
2023-08-23T11:01:00.599Z,85.40
2023-08-23T11:03:30.018Z,84.70
2023-08-23T11:05:56.870Z,83.20
2023-08-23T11:08:24.074Z,82.50
2023-08-23T11:10:51.305Z,82.50
2023-08-23T11:13:18.095Z,80.20
2023-08-23T11:15:45.392Z,81.10
2023-08-23T11:18:14.442Z,81.20
2023-08-23T11:20:42.756Z,80.10
2023-08-23T11:23:09.540Z,79.90
2023-08-23T11:25:36.649Z,79.40
2023-08-23T11:28:06.615Z,78.10
2023-08-23T11:30:33.784Z,77.40
2023-08-23T11:33:00.851Z,77.70
2023-08-23T11:35:29.426Z,77.50
2023-08-23T11:37:57.780Z,77.00
2023-08-23T11:40:25.145Z,76.30
2023-08-23T11:43:16.019Z,76.40
2023-08-23T11:45:45.688Z,76.40
2023-08-23T11:48:13.494Z,75.90
2023-08-23T11:50:40.668Z,74.80
2023-08-23T11:53:10.194Z,74.00
2023-08-23T11:55:37.530Z,73.90
2023-08-23T11:58:05.360Z,74.10
2023-08-23T12:00:32.288Z,73.10
2023-08-23T12:02:59.319Z,74.10
2023-08-23T12:05:26.346Z,74.60
2023-08-23T12:07:54.184Z,74.10
2023-08-23T12:10:21.184Z,74.10
2023-08-23T12:12:48.195Z,72.50
2023-08-23T12:15:14.997Z,72.40
2023-08-23T12:17:41.688Z,72.10
2023-08-23T12:20:11.718Z,71.00
2023-08-23T12:22:44.411Z,71.10
2023-08-23T12:25:11.212Z,70.20
2023-08-23T12:27:37.997Z,70.30
2023-08-23T12:30:05.203Z,69.70
2023-08-23T12:32:32.099Z,69.90
2023-08-23T12:34:58.904Z,69.40
2023-08-23T12:37:25.615Z,69.10
2023-08-23T12:39:52.372Z,68.70
2023-08-23T12:42:19.127Z,68.20
2023-08-23T12:44:45.936Z,67.90
2023-08-23T12:47:12.681Z,67.40
2023-08-23T12:49:39.470Z,67.20
2023-08-23T12:52:07.417Z,67.10
2023-08-23T12:54:34.396Z,66.30
2023-08-23T12:57:01.383Z,67.00
2023-08-23T12:59:28.150Z,66.60
2023-08-23T13:01:54.929Z,67.40
2023-08-23T13:04:21.714Z,66.90
2023-08-23T13:06:48.514Z,66.40
2023-08-23T13:09:16.149Z,67.00
2023-08-23T13:11:42.938Z,66.80
2023-08-23T13:14:09.696Z,66.20
2023-08-23T13:16:36.430Z,66.00
2023-08-23T13:19:03.538Z,65.90
2023-08-23T13:21:30.337Z,66.10
2023-08-23T13:23:59.959Z,66.40
2023-08-23T13:26:27.719Z,65.60
2023-08-23T13:28:54.552Z,65.70
2023-08-23T13:31:24.434Z,64.40
2023-08-23T13:33:51.417Z,63.90
2023-08-23T13:36:18.234Z,63.30
2023-08-23T13:38:45.065Z,64.10
2023-08-23T13:41:11.800Z,63.70
2023-08-23T13:43:39.241Z,63.70
2023-08-23T13:46:06.144Z,63.30
2023-08-23T13:48:32.928Z,63.00
2023-08-23T13:50:59.777Z,63.00
2023-08-23T13:53:26.607Z,62.50
2023-08-23T13:55:53.451Z,62.80
2023-08-23T13:58:20.502Z,62.70
2023-08-23T14:00:47.511Z,62.40
2023-08-23T14:03:14.309Z,61.80
2023-08-23T14:05:41.099Z,61.30
2023-08-23T14:08:07.865Z,61.00
2023-08-23T14:10:35.921Z,61.20
2023-08-23T14:13:02.846Z,61.00
2023-08-23T14:15:29.737Z,61.00
2023-08-23T14:17:56.572Z,60.80
2023-08-23T14:20:23.427Z,61.20
2023-08-23T14:22:50.496Z,61.00
2023-08-23T14:25:17.423Z,60.80
2023-08-23T14:27:44.184Z,60.30
2023-08-23T14:30:11.663Z,59.90
2023-08-23T14:32:39.788Z,59.60
2023-08-23T14:35:06.729Z,59.50
2023-08-23T14:37:33.552Z,59.20
2023-08-23T14:40:00.357Z,58.30
2023-08-23T14:42:28.504Z,58.60
2023-08-23T14:44:57.313Z,58.50
2023-08-23T14:47:24.444Z,58.50
2023-08-23T14:49:51.702Z,58.10
2023-08-23T14:52:19.670Z,58.10
2023-08-23T14:54:49.640Z,57.80
2023-08-23T14:57:16.625Z,57.70
2023-08-23T14:59:44.187Z,57.60
2023-08-23T15:02:14.759Z,57.70
2023-08-23T15:04:48.007Z,57.90
2023-08-23T15:07:15.267Z,57.80
2023-08-23T15:09:42.097Z,57.70
2023-08-23T15:12:09.187Z,58.10
2023-08-23T15:14:35.936Z,57.10
2023-08-23T15:17:03.820Z,57.10
2023-08-23T15:19:30.790Z,57.40
2023-08-23T15:21:59.573Z,57.60
2023-08-23T15:24:30.620Z,57.10
2023-08-23T15:26:58.335Z,56.60
2023-08-23T15:29:37.775Z,57.20
2023-08-23T15:32:06.140Z,55.20
2023-08-23T15:34:35.407Z,56.60
2023-08-23T15:37:04.441Z,56.50
2023-08-23T15:39:31.600Z,56.40
2023-08-23T15:41:58.496Z,56.10
2023-08-23T15:44:26.119Z,55.40
2023-08-23T15:46:52.946Z,56.10
2023-08-23T15:49:19.743Z,56.50
2023-08-23T15:51:46.510Z,56.50
2023-08-23T15:54:13.294Z,56.90
2023-08-23T15:56:40.121Z,56.90
2023-08-23T15:59:06.869Z,56.60
2023-08-23T16:01:34.596Z,57.30
2023-08-23T16:04:01.522Z,56.80
2023-08-23T16:06:28.372Z,56.70
2023-08-23T16:08:55.224Z,56.80
2023-08-23T16:11:22.063Z,56.90
2023-08-23T16:13:48.958Z,56.00
2023-08-23T16:16:16.457Z,56.20
2023-08-23T16:18:43.491Z,56.00
2023-08-23T16:21:10.340Z,56.80
2023-08-23T16:23:39.757Z,56.60
2023-08-23T16:26:09.665Z,56.20
2023-08-23T16:28:36.987Z,56.40
2023-08-23T16:31:03.854Z,56.70
2023-08-23T16:33:30.594Z,56.60
2023-08-23T16:35:57.418Z,56.50
2023-08-23T16:38:24.231Z,56.50
2023-08-23T16:40:51.339Z,56.60
2023-08-23T16:43:18.335Z,56.50
2023-08-23T16:45:47.630Z,56.90
2023-08-23T16:48:14.519Z,59.00
2023-08-23T16:50:42.737Z,61.30
2023-08-23T16:53:09.510Z,63.60
2023-08-23T16:55:36.735Z,62.20
2023-08-23T16:58:04.312Z,62.70
2023-08-23T17:00:31.441Z,63.70
2023-08-23T17:02:58.359Z,61.60
2023-08-23T17:05:27.380Z,62.80
2023-08-23T17:07:55.728Z,64.20
2023-08-23T17:10:22.516Z,63.20
2023-08-23T17:12:49.436Z,64.10
2023-08-23T17:15:16.788Z,64.80
2023-08-23T17:17:43.700Z,64.90
2023-08-23T17:20:10.921Z,64.80
2023-08-23T17:22:37.858Z,65.40
2023-08-23T17:25:05.393Z,66.60
2023-08-23T17:27:32.873Z,65.60
2023-08-23T17:29:59.622Z,67.40
2023-08-23T17:32:26.387Z,68.50
2023-08-23T17:34:53.193Z,68.40
2023-08-23T17:37:20.080Z,68.00
2023-08-23T17:39:48.705Z,68.00
2023-08-23T17:42:15.497Z,67.40
2023-08-23T17:44:42.317Z,67.50
2023-08-23T17:47:09.195Z,67.50
2023-08-23T17:49:36.044Z,67.60
2023-08-23T17:52:03.045Z,66.70
2023-08-23T17:54:29.877Z,66.80
2023-08-23T17:56:56.649Z,66.60
2023-08-23T17:59:24.295Z,67.10
2023-08-23T18:01:51.213Z,65.80
2023-08-23T18:04:18.123Z,65.70
2023-08-23T18:06:44.891Z,65.40
2023-08-23T18:09:11.863Z,65.10
2023-08-23T18:11:38.649Z,65.40
2023-08-23T18:14:05.450Z,65.50
2023-08-23T18:16:32.595Z,65.40
2023-08-23T18:18:59.380Z,65.80
2023-08-23T18:21:27.392Z,66.60
2023-08-23T18:23:56.007Z,66.60
2023-08-23T18:26:24.256Z,67.10
2023-08-23T18:28:51.000Z,67.00
2023-08-23T18:31:20.295Z,67.00
2023-08-23T18:33:47.564Z,66.70
2023-08-23T18:36:14.466Z,67.10
2023-08-23T18:38:41.436Z,67.50
2023-08-23T18:41:08.265Z,67.60
2023-08-23T18:43:35.424Z,68.10
2023-08-23T18:46:02.300Z,68.20
2023-08-23T18:48:29.152Z,68.80
2023-08-23T18:51:00.381Z,68.70
2023-08-23T18:53:27.760Z,68.90
2023-08-23T18:55:54.709Z,68.80
2023-08-23T18:58:21.578Z,69.60
2023-08-23T19:00:48.906Z,69.60
2023-08-23T19:03:18.065Z,70.20
2023-08-23T19:05:45.639Z,70.60
2023-08-23T19:08:13.184Z,70.70
2023-08-23T19:10:40.262Z,71.00
2023-08-23T19:13:07.035Z,71.20
2023-08-23T19:15:38.991Z,71.50
2023-08-23T19:18:07.149Z,71.50
2023-08-23T19:20:33.951Z,71.70
2023-08-23T19:23:00.705Z,72.00
2023-08-23T19:25:30.957Z,72.40
2023-08-23T19:27:59.224Z,72.90
2023-08-23T19:30:26.320Z,72.60
2023-08-23T19:32:53.535Z,72.70
2023-08-23T19:35:21.018Z,73.00
2023-08-23T19:37:48.228Z,72.90
2023-08-23T19:40:15.561Z,73.50
2023-08-23T19:42:42.382Z,73.60
2023-08-23T19:45:11.744Z,73.40
2023-08-23T19:47:39.812Z,73.80
2023-08-23T19:50:07.628Z,74.50
2023-08-23T19:52:34.490Z,73.90
2023-08-23T19:55:01.324Z,73.80
2023-08-23T19:57:32.814Z,74.00
2023-08-23T20:00:01.539Z,74.40
2023-08-23T20:02:28.519Z,74.40
2023-08-23T20:04:55.505Z,74.50
2023-08-23T20:07:34.237Z,74.60
2023-08-23T20:10:07.943Z,74.90
2023-08-23T20:12:39.496Z,75.20
2023-08-23T20:15:07.180Z,75.00
2023-08-23T20:17:34.120Z,75.30
2023-08-23T20:20:00.991Z,75.10
2023-08-23T20:22:27.893Z,75.70
2023-08-23T20:24:56.202Z,76.90
2023-08-23T20:27:24.361Z,79.40
2023-08-23T20:29:52.110Z,79.60
2023-08-23T20:32:19.389Z,80.10
2023-08-23T20:34:46.258Z,80.00
2023-08-23T20:37:13.073Z,77.80
2023-08-23T20:39:39.842Z,78.30
2023-08-23T20:42:07.140Z,78.50
2023-08-23T20:44:35.022Z,78.00
2023-08-23T20:47:02.057Z,78.00
2023-08-23T20:49:33.511Z,77.20
2023-08-23T20:52:01.433Z,76.80
2023-08-23T20:54:28.361Z,77.30
2023-08-23T20:56:55.436Z,77.00
2023-08-23T20:59:22.270Z,76.50
2023-08-23T21:01:49.826Z,77.50
2023-08-23T21:04:16.811Z,78.00
2023-08-23T21:06:43.668Z,78.50
2023-08-23T21:09:10.605Z,78.60
2023-08-23T21:11:37.774Z,78.90
2023-08-23T21:14:06.633Z,79.00
2023-08-23T21:16:33.892Z,79.20
2023-08-23T21:19:01.725Z,79.30
2023-08-23T21:21:29.045Z,79.40
2023-08-23T21:23:56.078Z,79.40
2023-08-23T21:26:23.099Z,79.60
2023-08-23T21:28:50.241Z,79.90
2023-08-23T21:31:17.277Z,80.20
2023-08-23T21:33:44.295Z,79.40
2023-08-23T21:36:11.263Z,79.80
2023-08-23T21:38:39.226Z,79.60
2023-08-23T21:41:06.337Z,80.20
2023-08-23T21:43:33.310Z,80.80
2023-08-23T21:46:01.636Z,81.10
2023-08-23T21:48:28.690Z,81.40
2023-08-23T21:50:55.637Z,80.80
2023-08-23T21:53:22.551Z,80.90
2023-08-23T21:55:54.920Z,81.20
2023-08-23T21:58:26.870Z,80.80
2023-08-23T22:00:58.131Z,82.10
2023-08-23T22:03:32.275Z,82.30
2023-08-23T22:06:07.902Z,81.60
2023-08-23T22:08:37.416Z,81.90
2023-08-23T22:11:12.529Z,81.80
2023-08-23T22:13:42.539Z,82.00
2023-08-23T22:16:09.563Z,81.60
2023-08-23T22:18:37.360Z,81.90
2023-08-23T22:21:05.966Z,82.20
2023-08-23T22:23:33.256Z,82.90
2023-08-23T22:26:01.491Z,83.20
2023-08-23T22:28:28.457Z,83.20
2023-08-23T22:30:58.659Z,83.40
2023-08-23T22:33:28.467Z,83.60
2023-08-23T22:35:58.403Z,83.80
2023-08-23T22:38:26.702Z,83.60
2023-08-23T22:40:57.940Z,83.90
2023-08-23T22:43:25.193Z,84.10
2023-08-23T22:45:53.219Z,84.30
2023-08-23T22:48:20.212Z,84.30
2023-08-23T22:50:47.229Z,84.60
2023-08-23T22:53:14.198Z,84.40
2023-08-23T22:55:41.670Z,84.30
2023-08-23T22:58:08.622Z,84.70
2023-08-23T23:00:35.663Z,84.90
2023-08-23T23:03:02.733Z,85.10
2023-08-23T23:05:29.851Z,85.50
2023-08-23T23:07:57.256Z,85.30
2023-08-23T23:10:24.124Z,85.70
2023-08-23T23:12:50.935Z,85.90
2023-08-23T23:15:17.865Z,86.10
2023-08-23T23:17:44.906Z,86.10
2023-08-23T23:20:16.566Z,86.30
2023-08-23T23:22:43.457Z,86.50
2023-08-23T23:25:10.580Z,86.60
2023-08-23T23:27:37.782Z,86.80
2023-08-23T23:30:06.477Z,86.90
2023-08-23T23:32:34.059Z,86.90
2023-08-23T23:35:01.085Z,87.20
2023-08-23T23:37:28.707Z,87.00
2023-08-23T23:39:55.762Z,87.00
2023-08-23T23:42:22.844Z,87.10
2023-08-23T23:44:49.835Z,87.10
2023-08-23T23:47:16.765Z,87.10
2023-08-23T23:49:43.615Z,87.10
2023-08-23T23:52:10.398Z,87.10
2023-08-23T23:54:37.212Z,88.00
2023-08-23T23:57:04.006Z,87.20
2023-08-23T23:59:32.139Z,87.60
